Time;durP1;ratioP1;P1;durP2;ratioP2;P2;SDS_P1;SDS_P2;PMS_P1;PMS_P2;Temp;Humidity;BMP_temperature;BMP_pressure;BME280_temperature;BME280_humidity;BME280_pressure;Samples;Min_cycle;Max_cycle;Signal;HPM_P1;HPM_P2
2020/12/20 00:02:20;;;;;;;9.82;5.28;;;13.10;75.90;;;;;;5018782;28;20155;-72
2020/12/20 00:04:46;;;;;;;10.57;5.50;;;13.20;75.90;;;;;;5023045;28;20437;-72
2020/12/20 00:07:11;;;;;;;10.10;5.10;;;13.10;76.10;;;;;;5028803;28;20036;-72
2020/12/20 00:09:37;;;;;;;14.13;6.22;;;13.10;76.10;;;;;;5013212;28;20044;-73
2020/12/20 00:12:03;;;;;;;12.88;6.55;;;13.10;75.90;;;;;;5019725;28;20067;-73
2020/12/20 00:14:31;;;;;;;9.10;5.38;;;13.20;75.90;;;;;;5031658;28;20041;-73
2020/12/20 00:16:59;;;;;;;11.93;5.80;;;13.20;75.90;;;;;;5013120;28;20112;-73
2020/12/20 00:19:25;;;;;;;8.70;4.70;;;13.20;75.80;;;;;;5024769;28;20036;-73
2020/12/20 00:21:59;;;;;;;7.93;4.43;;;13.20;75.70;;;;;;5023794;28;20034;-73
2020/12/20 00:24:26;;;;;;;9.27;5.60;;;13.30;75.60;;;;;;5020084;28;20132;-73
2020/12/20 00:26:52;;;;;;;9.32;4.82;;;13.20;75.70;;;;;;5021396;28;20447;-73
2020/12/20 00:29:18;;;;;;;11.38;5.60;;;13.20;75.60;;;;;;5024052;28;20029;-72
2020/12/20 00:31:44;;;;;;;9.70;5.15;;;13.20;75.90;;;;;;5031008;28;20036;-73
2020/12/20 00:34:09;;;;;;;9.63;4.60;;;13.10;76.00;;;;;;5028817;28;20037;-72
2020/12/20 00:36:35;;;;;;;11.20;5.60;;;13.20;75.90;;;;;;5030783;28;20033;-73
2020/12/20 00:39:03;;;;;;;9.02;4.90;;;13.20;75.80;;;;;;5027602;28;20065;-72
2020/12/20 00:41:28;;;;;;;12.00;5.85;;;13.20;75.80;;;;;;5021808;28;20068;-72
2020/12/20 00:43:54;;;;;;;8.20;4.85;;;13.30;75.90;;;;;;5022795;28;20036;-72
2020/12/20 00:46:19;;;;;;;11.27;4.88;;;13.30;75.70;;;;;;5013903;28;20326;-72
2020/12/20 00:48:45;;;;;;;11.15;5.88;;;13.30;75.80;;;;;;5011920;28;20061;-72
2020/12/20 00:51:11;;;;;;;9.38;4.55;;;13.30;75.80;;;;;;5010084;28;20083;-72
2020/12/20 00:53:37;;;;;;;9.45;4.60;;;13.30;75.60;;;;;;5013055;28;20033;-72
2020/12/20 00:56:05;;;;;;;10.05;4.13;;;13.30;75.50;;;;;;5021843;28;20038;-73
2020/12/20 00:58:34;;;;;;;8.35;4.78;;;13.40;75.50;;;;;;5011079;28;20022;-73
2020/12/20 01:01:02;;;;;;;11.60;5.40;;;13.40;75.30;;;;;;5023514;28;20033;-72
2020/12/20 01:03:28;;;;;;;11.07;4.55;;;13.40;75.20;;;;;;5022192;28;20113;-74
2020/12/20 01:05:54;;;;;;;9.45;4.45;;;13.40;75.10;;;;;;5012349;28;20177;-72
2020/12/20 01:08:20;;;;;;;10.88;4.72;;;13.50;75.00;;;;;;5024012;28;20041;-72
2020/12/20 01:10:46;;;;;;;8.20;4.50;;;13.50;75.00;;;;;;5020780;28;20026;-72
2020/12/20 01:13:12;;;;;;;9.00;4.35;;;13.40;74.90;;;;;;5029620;28;20044;-72
2020/12/20 01:15:37;;;;;;;7.65;4.18;;;13.40;75.00;;;;;;5031919;28;20432;-73
2020/12/20 01:18:03;;;;;;;10.70;4.80;;;13.40;75.00;;;;;;5011062;28;20133;-72
2020/12/20 01:20:29;;;;;;;9.98;4.60;;;13.40;75.00;;;;;;5023104;28;20125;-72
2020/12/20 01:22:54;;;;;;;9.15;4.50;;;13.40;75.10;;;;;;5014444;28;20107;-72
2020/12/20 01:25:20;;;;;;;9.70;4.53;;;13.30;75.00;;;;;;5021866;28;20125;-72
2020/12/20 01:27:46;;;;;;;8.57;4.90;;;13.30;74.90;;;;;;5030495;28;20041;-72
2020/12/20 01:30:11;;;;;;;17.13;6.43;;;13.30;75.10;;;;;;5029121;28;20034;-72
2020/12/20 01:32:37;;;;;;;10.23;5.78;;;13.30;75.10;;;;;;5018129;28;20084;-72
2020/12/20 01:35:04;;;;;;;9.65;4.18;;;13.30;75.30;;;;;;5029479;28;20041;-73
2020/12/20 01:37:31;;;;;;;11.60;4.38;;;13.20;75.20;;;;;;5021439;28;20495;-73
2020/12/20 01:39:58;;;;;;;10.43;5.13;;;13.20;75.40;;;;;;5021259;28;20049;-72
2020/12/20 01:42:24;;;;;;;13.52;4.82;;;13.20;75.40;;;;;;5021402;28;20072;-72
2020/12/20 01:44:50;;;;;;;9.20;4.63;;;13.20;75.40;;;;;;5028854;28;20551;-73
2020/12/20 01:47:16;;;;;;;11.18;5.13;;;13.20;75.40;;;;;;5012014;28;20061;-72
2020/12/20 01:49:42;;;;;;;8.80;4.32;;;13.20;75.40;;;;;;5015326;28;20042;-72
2020/12/20 01:52:09;;;;;;;10.02;4.07;;;13.30;75.40;;;;;;5009643;28;20137;-72
2020/12/20 01:54:36;;;;;;;9.50;4.28;;;13.30;75.20;;;;;;5016759;28;20120;-74
2020/12/20 01:57:03;;;;;;;9.23;4.57;;;13.30;75.20;;;;;;5031280;28;20026;-73
2020/12/20 01:59:29;;;;;;;10.18;4.95;;;13.20;75.20;;;;;;5012193;28;20026;-72
2020/12/20 02:01:58;;;;;;;12.30;4.82;;;13.20;75.20;;;;;;5030359;28;20036;-72
2020/12/20 02:04:27;;;;;;;7.68;4.10;;;13.30;75.10;;;;;;5027204;28;20029;-72
2020/12/20 02:06:53;;;;;;;8.55;4.75;;;13.30;75.00;;;;;;5015191;28;20483;-72
2020/12/20 02:09:19;;;;;;;10.70;4.80;;;13.30;75.10;;;;;;5027233;28;20095;-73
2020/12/20 02:11:45;;;;;;;8.90;3.83;;;13.30;75.20;;;;;;5014983;28;20117;-72
2020/12/20 02:14:11;;;;;;;10.85;4.85;;;13.30;75.00;;;;;;5010086;28;20133;-74
2020/12/20 02:16:37;;;;;;;9.40;4.60;;;13.30;74.90;;;;;;5016175;28;20042;-72
2020/12/20 02:19:02;;;;;;;8.48;4.05;;;13.30;74.90;;;;;;5030251;28;20052;-72
2020/12/20 02:21:28;;;;;;;9.35;4.32;;;13.30;75.00;;;;;;5023680;28;20462;-73
2020/12/20 02:23:54;;;;;;;7.93;3.97;;;13.30;75.10;;;;;;5015921;28;20033;-72
2020/12/20 02:26:24;;;;;;;8.20;4.57;;;13.30;75.10;;;;;;5013038;28;20029;-73
2020/12/20 02:28:51;;;;;;;10.85;4.15;;;13.30;75.00;;;;;;5028224;28;20495;-72
2020/12/20 02:31:17;;;;;;;7.63;3.67;;;13.30;75.00;;;;;;5013829;28;20037;-72
2020/12/20 02:33:43;;;;;;;12.40;4.43;;;13.30;74.90;;;;;;5029468;28;20029;-72
2020/12/20 02:36:10;;;;;;;11.27;3.83;;;13.30;75.00;;;;;;5014854;28;20042;-72
2020/12/20 02:38:35;;;;;;;7.80;4.00;;;13.30;74.80;;;;;;5011615;28;20041;-73
2020/12/20 02:41:01;;;;;;;8.20;3.83;;;13.30;74.70;;;;;;5028228;28;20038;-72
2020/12/20 02:43:27;;;;;;;13.18;6.50;;;13.30;74.70;;;;;;5010463;28;20037;-72
2020/12/20 02:45:53;;;;;;;8.20;4.10;;;13.20;74.80;;;;;;5017858;28;20044;-72
2020/12/20 02:48:18;;;;;;;9.05;3.90;;;13.30;74.80;;;;;;5010662;28;20432;-72
2020/12/20 02:50:44;;;;;;;7.43;3.85;;;13.20;74.70;;;;;;5011210;28;20037;-72
2020/12/20 02:53:10;;;;;;;9.80;4.60;;;13.30;74.70;;;;;;5025548;28;20030;-72
2020/12/20 02:55:36;;;;;;;8.07;4.50;;;13.20;74.60;;;;;;5024125;28;20482;-72
2020/12/20 02:58:02;;;;;;;10.88;4.93;;;13.20;74.60;;;;;;5023698;28;20120;-72
2020/12/20 03:00:28;;;;;;;9.48;5.07;;;13.10;74.60;;;;;;5018728;28;20037;-72
2020/12/20 03:02:53;;;;;;;8.30;5.53;;;13.10;74.90;;;;;;5015934;28;20030;-72
2020/12/20 03:05:19;;;;;;;8.63;4.18;;;13.00;75.00;;;;;;5015844;28;20072;-72
2020/12/20 03:07:48;;;;;;;10.07;4.10;;;13.00;75.10;;;;;;5023261;28;20060;-72
2020/12/20 03:10:14;;;;;;;8.75;4.25;;;13.10;75.10;;;;;;5025550;28;20033;-73
2020/12/20 03:12:40;;;;;;;9.52;4.35;;;13.10;75.10;;;;;;5021254;28;20029;-72
2020/12/20 03:15:06;;;;;;;12.90;5.22;;;13.10;75.10;;;;;;5029641;28;20053;-73
2020/12/20 03:17:32;;;;;;;12.55;4.82;;;13.10;75.00;;;;;;5019112;28;20045;-72
2020/12/20 03:19:57;;;;;;;7.63;4.25;;;13.10;75.10;;;;;;5027678;28;20041;-72
2020/12/20 03:22:23;;;;;;;10.32;5.13;;;13.10;75.10;;;;;;5029842;28;20040;-73
2020/12/20 03:24:49;;;;;;;12.07;4.43;;;13.10;75.00;;;;;;5008590;28;20040;-72
2020/12/20 03:27:14;;;;;;;11.02;4.90;;;13.20;75.00;;;;;;5024394;28;20041;-72
2020/12/20 03:29:40;;;;;;;10.73;4.05;;;13.20;75.00;;;;;;5003790;28;20033;-72
2020/12/20 03:32:05;;;;;;;7.20;3.83;;;13.20;74.90;;;;;;5028425;28;20030;-72
2020/12/20 03:34:31;;;;;;;10.75;4.50;;;13.20;74.80;;;;;;5028492;28;20037;-71
2020/12/20 03:36:57;;;;;;;10.13;4.47;;;13.20;74.90;;;;;;5027636;28;20065;-72
2020/12/20 03:39:22;;;;;;;7.88;4.45;;;13.10;74.90;;;;;;5021286;28;20070;-72
2020/12/20 03:41:48;;;;;;;8.95;4.15;;;13.10;74.90;;;;;;5023958;28;20033;-72
2020/12/20 03:44:14;;;;;;;9.13;4.00;;;13.20;75.00;;;;;;5013538;28;20423;-72
2020/12/20 03:46:39;;;;;;;10.18;4.53;;;13.20;75.00;;;;;;5020842;28;20113;-72
2020/12/20 03:49:05;;;;;;;6.95;4.28;;;13.20;75.00;;;;;;5011364;28;20034;-72
2020/12/20 03:51:30;;;;;;;9.55;4.30;;;13.20;74.90;;;;;;5025721;28;20057;-72
2020/12/20 03:53:56;;;;;;;10.15;4.97;;;13.20;74.90;;;;;;5018965;28;20453;-72
2020/12/20 03:56:54;;;;;;;9.63;4.47;;;13.20;74.80;;;;;;5081310;27;771483;-73
2020/12/20 03:59:20;;;;;;;8.48;4.95;;;13.10;74.90;;;;;;5086776;28;20384;-73
2020/12/20 04:01:46;;;;;;;9.77;3.95;;;13.10;75.00;;;;;;5068629;28;20160;-73
2020/12/20 04:04:11;;;;;;;7.85;4.50;;;13.10;75.10;;;;;;5086699;28;20067;-72
2020/12/20 04:06:37;;;;;;;7.40;3.88;;;13.10;75.10;;;;;;5087390;28;20393;-72
2020/12/20 04:09:03;;;;;;;8.60;4.07;;;13.00;75.40;;;;;;5087238;28;20032;-72
2020/12/20 04:11:28;;;;;;;13.10;4.75;;;13.00;75.50;;;;;;5069129;28;20024;-72
2020/12/20 04:13:54;;;;;;;10.00;4.53;;;13.00;75.40;;;;;;5087295;28;20086;-72
2020/12/20 04:16:19;;;;;;;9.00;4.35;;;13.10;75.40;;;;;;5068252;28;20052;-73
2020/12/20 04:18:45;;;;;;;10.23;3.95;;;13.10;75.40;;;;;;5087058;28;20665;-72
2020/12/20 04:21:11;;;;;;;10.50;4.25;;;13.10;75.20;;;;;;5087704;28;20141;-72
2020/12/20 04:23:36;;;;;;;11.50;3.97;;;13.20;75.10;;;;;;5098591;28;20028;-72
2020/12/20 04:26:02;;;;;;;9.82;4.22;;;13.20;74.90;;;;;;5085344;28;20042;-72
2020/12/20 04:28:28;;;;;;;9.77;4.22;;;13.20;74.90;;;;;;5067115;28;20078;-72
2020/12/20 04:30:53;;;;;;;7.93;4.18;;;13.20;74.90;;;;;;5085756;28;20040;-72
2020/12/20 04:33:19;;;;;;;19.63;5.30;;;13.20;74.80;;;;;;5087207;28;20148;-72
2020/12/20 04:35:45;;;;;;;9.00;3.92;;;13.20;74.90;;;;;;5066893;28;20056;-72
2020/12/20 04:38:11;;;;;;;10.40;4.13;;;13.20;74.80;;;;;;5067031;28;20064;-72
2020/12/20 04:40:36;;;;;;;9.73;4.05;;;13.20;74.80;;;;;;5092449;28;20425;-72
2020/12/20 04:43:05;;;;;;;9.32;4.75;;;13.20;74.80;;;;;;5070377;28;20188;-72
2020/12/20 04:45:31;;;;;;;9.10;3.50;;;13.20;74.90;;;;;;5077066;28;20113;-72
2020/12/20 04:47:58;;;;;;;8.05;3.97;;;13.20;74.90;;;;;;5080261;28;20040;-72
2020/12/20 04:50:24;;;;;;;12.15;4.45;;;13.20;74.90;;;;;;5087117;28;20031;-72
2020/12/20 04:52:55;;;;;;;8.07;3.50;;;13.20;74.80;;;;;;5089556;28;20048;-72
2020/12/20 04:55:24;;;;;;;11.05;4.75;;;13.20;74.70;;;;;;5087459;28;20044;-72
2020/12/20 04:57:51;;;;;;;9.32;3.88;;;13.20;74.50;;;;;;5084286;28;20107;-72
2020/12/20 05:00:18;;;;;;;10.35;4.18;;;13.20;74.60;;;;;;5065612;28;20020;-73
2020/12/20 05:02:44;;;;;;;9.63;3.67;;;13.20;74.70;;;;;;5076453;28;20036;-72
2020/12/20 05:05:10;;;;;;;10.65;4.65;;;13.20;74.70;;;;;;5065796;28;20097;-72
2020/12/20 05:07:35;;;;;;;8.65;3.80;;;13.20;74.70;;;;;;5086614;28;20039;-72
2020/12/20 05:10:02;;;;;;;9.30;2.90;;;13.20;74.70;;;;;;5053470;28;20033;-72
2020/12/20 05:12:33;;;;;;;8.63;3.67;;;13.30;74.70;;;;;;5072011;28;20031;-72
2020/12/20 05:15:15;;;;;;;7.85;3.60;;;13.30;74.60;;;;;;5071611;28;20639;-72
2020/12/20 05:17:41;;;;;;;8.35;3.72;;;13.30;74.50;;;;;;5072038;28;20587;-72
2020/12/20 05:20:07;;;;;;;8.23;3.88;;;13.20;74.50;;;;;;5078860;28;20089;-72
2020/12/20 05:22:33;;;;;;;7.93;3.63;;;13.20;74.40;;;;;;5061103;28;20100;-72
2020/12/20 05:25:15;;;;;;;7.68;3.22;;;12.30;73.90;;;;;;5059591;28;20048;-72
2020/12/20 05:27:41;;;;;;;8.23;3.88;;;13.30;74.40;;;;;;5074858;28;20044;-72
2020/12/20 05:30:16;;;;;;;10.68;3.20;;;13.30;74.40;;;;;;5048333;28;20037;-72
2020/12/20 05:32:44;;;;;;;8.52;3.70;;;13.30;74.40;;;;;;5064276;28;20187;-72
2020/12/20 05:35:12;;;;;;;8.70;3.63;;;13.20;74.30;;;;;;5070100;28;20158;-72
2020/12/20 05:37:38;;;;;;;9.90;4.57;;;13.30;74.30;;;;;;5081849;28;20101;-72
2020/12/20 05:40:09;;;;;;;7.88;3.58;;;13.20;74.40;;;;;;5067358;28;20085;-72
2020/12/20 05:42:35;;;;;;;9.00;3.50;;;13.20;74.40;;;;;;5072011;28;20033;-72
2020/12/20 05:45:11;;;;;;;8.35;4.10;;;13.20;74.40;;;;;;5071849;28;20040;-72
2020/12/20 05:47:38;;;;;;;8.45;3.42;;;13.10;74.50;;;;;;5064618;28;20032;-72
2020/12/20 05:50:06;;;;;;;7.25;3.67;;;13.10;74.70;;;;;;5085457;28;20025;-72
2020/12/20 05:52:32;;;;;;;10.60;3.72;;;13.10;74.70;;;;;;5072895;28;20037;-72
2020/12/20 05:54:57;;;;;;;10.68;4.53;;;13.20;74.70;;;;;;5070708;28;20033;-72
2020/12/20 05:57:24;;;;;;;9.80;4.28;;;13.20;74.80;;;;;;5054426;28;20032;-72
2020/12/20 05:59:51;;;;;;;10.85;3.97;;;13.20;74.60;;;;;;5077980;28;20055;-72
2020/12/20 06:02:18;;;;;;;10.23;3.92;;;13.20;74.50;;;;;;5086595;28;20608;-72
2020/12/20 06:04:45;;;;;;;9.20;3.85;;;13.20;74.40;;;;;;5066227;28;20064;-72
2020/12/20 06:07:13;;;;;;;9.32;3.38;;;13.20;74.40;;;;;;5070587;28;20040;-72
2020/12/20 06:09:49;;;;;;;8.80;3.55;;;13.20;74.40;;;;;;5060182;28;20031;-72
2020/12/20 06:12:22;;;;;;;11.75;4.15;;;13.20;74.40;;;;;;5058125;28;20386;-72
2020/12/20 06:14:48;;;;;;;8.27;3.42;;;13.20;74.50;;;;;;5070548;28;20033;-72
2020/12/20 06:17:18;;;;;;;9.77;3.45;;;13.20;74.40;;;;;;5085905;28;20036;-72
2020/12/20 06:19:48;;;;;;;9.10;5.07;;;13.30;74.40;;;;;;5068352;28;20032;-73
2020/12/20 06:22:24;;;;;;;13.55;4.03;;;13.20;74.30;;;;;;5052432;28;20028;-72
2020/12/20 06:24:54;;;;;;;10.43;4.03;;;13.20;74.40;;;;;;5065430;28;20461;-72
2020/12/20 06:27:22;;;;;;;6.82;3.47;;;13.20;74.40;;;;;;5057953;28;20020;-72
2020/12/20 06:29:50;;;;;;;10.40;4.78;;;13.20;74.40;;;;;;5081024;28;20031;-73
2020/12/20 06:32:21;;;;;;;8.40;3.58;;;13.20;74.40;;;;;;5072147;28;20103;-72
2020/12/20 06:34:48;;;;;;;9.63;4.18;;;13.20;74.40;;;;;;5078690;28;20052;-72
2020/12/20 06:37:17;;;;;;;10.52;4.40;;;13.20;74.30;;;;;;5071697;28;20064;-72
2020/12/20 06:39:43;;;;;;;9.02;3.70;;;13.20;74.50;;;;;;5062921;28;20037;-72
2020/12/20 06:42:09;;;;;;;8.60;3.80;;;13.10;74.50;;;;;;5069382;28;20081;-72
2020/12/20 06:44:35;;;;;;;10.25;3.80;;;13.10;74.60;;;;;;5052059;28;20020;-72
2020/12/20 06:47:00;;;;;;;16.95;5.95;;;13.10;74.70;;;;;;5050650;28;20032;-72
2020/12/20 06:49:42;;;;;;;13.48;7.03;;;13.10;74.70;;;;;;5062512;28;20028;-73
2020/12/20 06:52:17;;;;;;;18.10;7.43;;;13.10;74.70;;;;;;5070174;28;20025;-73
2020/12/20 06:55:06;;;;;;;11.38;5.55;;;13.10;74.60;;;;;;5056619;28;20060;-72
2020/12/20 06:57:33;;;;;;;9.45;4.53;;;13.10;74.70;;;;;;5059539;28;20063;-72
2020/12/20 06:59:58;;;;;;;10.95;4.70;;;13.10;74.90;;;;;;5069105;28;20032;-73
2020/12/20 07:02:46;;;;;;;13.23;5.82;;;13.10;75.00;;;;;;5018985;28;20086;-72
2020/12/20 07:05:44;;;;;;;13.90;4.90;;;13.00;74.90;;;;;;5054684;28;20105;-72
2020/12/20 07:08:11;;;;;;;9.68;4.32;;;13.10;74.90;;;;;;5067613;28;20029;-73
2020/12/20 07:10:47;;;;;;;12.00;4.30;;;13.00;74.90;;;;;;5069890;28;20473;-72
2020/12/20 07:13:14;;;;;;;11.45;4.30;;;13.00;74.90;;;;;;5089989;28;20027;-73
2020/12/20 07:15:48;;;;;;;8.82;3.63;;;13.00;74.90;;;;;;5060720;28;20129;-72
2020/12/20 07:18:32;;;;;;;;;;;12.90;75.50;;;;;;5051253;28;20128;-72
2020/12/20 07:20:58;;;;;;;18.58;5.32;;;13.00;74.70;;;;;;5054474;28;19956;-74
2020/12/20 07:23:23;;;;;;;10.10;5.53;;;12.90;74.80;;;;;;5059502;28;20486;-73
2020/12/20 07:25:52;;;;;;;8.88;3.78;;;13.00;74.90;;;;;;5052446;28;20477;-72
2020/12/20 07:28:18;;;;;;;11.38;5.50;;;13.00;75.00;;;;;;5051860;28;20041;-72
2020/12/20 07:30:44;;;;;;;8.98;4.70;;;13.00;74.90;;;;;;5068606;28;20024;-73
2020/12/20 07:33:09;;;;;;;8.65;4.35;;;12.90;74.90;;;;;;5051180;28;20043;-73
2020/12/20 07:35:47;;;;;;;12.00;3.85;;;12.90;74.90;;;;;;5049550;28;20041;-72
2020/12/20 07:38:14;;;;;;;11.13;3.80;;;12.90;75.00;;;;;;5083684;28;20135;-72
2020/12/20 07:40:40;;;;;;;10.02;3.63;;;12.90;75.20;;;;;;5048762;28;20029;-72
2020/12/20 07:43:06;;;;;;;13.52;3.60;;;12.90;75.40;;;;;;5048634;28;20041;-72
2020/12/20 07:45:33;;;;;;;10.63;4.80;;;12.80;75.40;;;;;;5049560;28;20091;-73
2020/12/20 07:47:58;;;;;;;9.60;3.90;;;12.90;75.40;;;;;;5032737;28;20120;-72
2020/12/20 07:50:25;;;;;;;10.65;4.10;;;12.90;75.30;;;;;;5079780;28;20119;-73
2020/12/20 07:52:51;;;;;;;11.55;4.35;;;12.90;75.20;;;;;;5068621;28;20024;-73
2020/12/20 07:55:17;;;;;;;13.52;4.55;;;12.90;75.20;;;;;;5066357;28;20407;-72
2020/12/20 07:57:47;;;;;;;10.68;4.50;;;12.90;75.20;;;;;;5034925;28;20049;-73
2020/12/20 08:00:14;;;;;;;10.57;3.97;;;12.90;75.20;;;;;;5079515;28;20111;-73
2020/12/20 08:02:40;;;;;;;37.10;5.78;;;13.00;75.10;;;;;;5049043;28;20025;-72
2020/12/20 08:05:08;;;;;;;12.73;4.30;;;13.00;75.10;;;;;;5043388;28;20440;-73
2020/12/20 08:07:34;;;;;;;10.18;4.53;;;12.90;75.00;;;;;;5048738;28;20033;-73
2020/12/20 08:10:00;;;;;;;8.38;4.25;;;13.00;75.10;;;;;;5046716;28;20043;-73
2020/12/20 08:12:26;;;;;;;11.27;4.53;;;13.00;75.00;;;;;;5071886;28;20041;-72
2020/12/20 08:15:08;;;;;;;13.15;4.20;;;13.00;74.90;;;;;;5068548;28;20189;-73
2020/12/20 08:17:37;;;;;;;10.27;4.13;;;13.00;75.00;;;;;;5080926;28;20036;-74
2020/12/20 08:20:06;;;;;;;28.55;4.63;;;13.00;75.00;;;;;;5067541;28;20032;-73
2020/12/20 08:22:33;;;;;;;9.55;3.75;;;13.00;75.00;;;;;;5069762;28;20496;-72
2020/12/20 08:25:09;;;;;;;13.13;5.30;;;13.00;75.00;;;;;;5067542;28;20489;-72
2020/12/20 08:27:37;;;;;;;11.07;4.15;;;13.00;75.00;;;;;;5067786;28;20454;-71
2020/12/20 08:30:07;;;;;;;14.05;4.07;;;13.10;74.90;;;;;;5072934;28;20489;-72
2020/12/20 08:32:38;;;;;;;12.23;4.47;;;13.10;74.80;;;;;;5069671;28;20036;-72
2020/12/20 08:35:22;;;;;;;10.60;4.05;;;13.10;74.70;;;;;;5087903;28;20024;-72
2020/12/20 08:37:53;;;;;;;17.92;5.13;;;13.10;74.70;;;;;;5051685;28;20144;-73
2020/12/20 08:40:20;;;;;;;9.13;3.72;;;13.10;74.70;;;;;;5063006;28;20040;-73
2020/12/20 08:42:47;;;;;;;12.68;3.83;;;13.20;74.70;;;;;;5063752;28;20828;-73
2020/12/20 08:45:15;;;;;;;11.93;4.28;;;13.20;74.60;;;;;;5052742;28;20035;-73
2020/12/20 08:47:43;;;;;;;9.98;4.60;;;13.20;74.50;;;;;;5071337;28;20031;-74
2020/12/20 08:50:09;;;;;;;11.77;4.68;;;13.30;74.30;;;;;;5072331;28;20020;-73
2020/12/20 08:52:34;;;;;;;8.15;3.47;;;13.30;74.40;;;;;;5073286;28;20165;-73
2020/12/20 08:55:02;;;;;;;10.25;4.13;;;13.30;74.30;;;;;;5072065;28;20776;-73
2020/12/20 08:57:32;;;;;;;11.48;4.53;;;13.30;74.30;;;;;;5071559;28;20091;-73
2020/12/20 09:00:27;;;;;;;10.80;4.80;;;13.40;74.30;;;;;;5065411;28;20043;-73
2020/12/20 09:03:03;;;;;;;11.70;5.40;;;13.40;74.20;;;;;;5033831;28;20589;-73
2020/12/20 09:05:30;;;;;;;14.07;5.68;;;13.50;74.10;;;;;;5067556;28;20043;-73
2020/12/20 09:08:00;;;;;;;15.20;6.90;;;13.50;74.00;;;;;;5053096;28;20032;-73
2020/12/20 09:10:27;;;;;;;20.77;6.25;;;13.50;74.00;;;;;;5069278;28;20020;-74
2020/12/20 09:12:57;;;;;;;10.90;4.32;;;13.50;73.80;;;;;;5050869;28;20103;-73
2020/12/20 09:15:30;;;;;;;9.30;3.75;;;13.60;73.60;;;;;;5073938;28;20040;-78
2020/12/20 09:18:00;;;;;;;11.05;3.13;;;13.60;73.50;;;;;;5061721;28;20110;-77
2020/12/20 09:20:28;;;;;;;10.80;3.92;;;13.60;73.50;;;;;;5072187;28;20411;-76
2020/12/20 09:22:58;;;;;;;10.57;5.18;;;13.60;73.30;;;;;;5074314;28;20157;-77
2020/12/20 09:25:30;;;;;;;10.95;4.50;;;13.60;73.30;;;;;;5072970;28;20029;-77
2020/12/20 09:28:00;;;;;;;15.20;4.20;;;13.60;73.30;;;;;;5073776;28;20169;-77
2020/12/20 09:30:44;;;;;;;10.15;4.50;;;13.60;73.20;;;;;;5072603;28;20050;-76
2020/12/20 09:33:30;;;;;;;13.10;4.50;;;13.60;73.20;;;;;;5065990;28;20040;-76
2020/12/20 09:35:59;;;;;;;12.95;3.88;;;13.70;73.30;;;;;;5057547;28;20029;-77
2020/12/20 09:38:49;;;;;;;17.55;5.10;;;13.70;73.20;;;;;;5042399;28;20028;-77
2020/12/20 09:41:16;;;;;;;9.35;3.38;;;13.70;72.90;;;;;;5065960;28;20028;-77
2020/12/20 09:43:43;;;;;;;11.07;3.97;;;13.80;72.80;;;;;;5059876;28;20540;-77
2020/12/20 09:46:17;;;;;;;14.65;5.53;;;13.80;72.80;;;;;;5068914;28;20069;-77
2020/12/20 09:48:42;;;;;;;11.30;5.90;;;13.80;72.60;;;;;;5072160;28;20056;-78
2020/12/20 09:51:08;;;;;;;13.93;5.45;;;13.90;72.70;;;;;;5050093;28;20063;-78
2020/12/20 09:53:33;;;;;;;20.60;7.88;;;13.90;72.30;;;;;;5071522;28;20176;-77
2020/12/20 09:55:59;;;;;;;14.30;7.35;;;13.90;72.40;;;;;;5071018;28;20468;-77
2020/12/20 09:58:27;;;;;;;16.10;5.45;;;14.00;72.30;;;;;;5032877;28;20037;-79
2020/12/20 10:00:52;;;;;;;11.40;5.18;;;14.00;72.10;;;;;;5069404;28;20028;-77
2020/12/20 10:03:18;;;;;;;10.98;5.13;;;14.10;72.10;;;;;;5054715;28;20526;-78
2020/12/20 10:05:45;;;;;;;14.77;4.95;;;14.10;72.00;;;;;;5070247;28;20362;-76
2020/12/20 10:08:13;;;;;;;15.27;5.70;;;14.10;71.90;;;;;;5054001;28;20284;-77
2020/12/20 10:10:38;;;;;;;15.43;4.38;;;14.10;71.80;;;;;;5076518;28;20061;-75
2020/12/20 10:13:04;;;;;;;15.45;4.03;;;12.50;70.80;;;;;;5069746;28;20034;-81
2020/12/20 10:15:30;;;;;;;12.00;4.30;;;14.20;71.70;;;;;;5071549;28;20121;-74
2020/12/20 10:17:58;;;;;;;12.38;4.65;;;14.20;71.60;;;;;;5088281;28;20523;-74
2020/12/20 10:20:24;;;;;;;14.68;3.83;;;14.10;71.60;;;;;;5041734;28;20524;-74
2020/12/20 10:22:49;;;;;;;11.30;4.63;;;14.20;71.40;;;;;;5049713;28;20033;-75
2020/12/20 10:25:15;;;;;;;14.35;3.83;;;14.20;71.20;;;;;;5072590;28;20036;-79
2020/12/20 10:27:41;;;;;;;11.73;4.10;;;14.10;71.40;;;;;;5073640;28;20112;-77
2020/12/20 10:30:07;;;;;;;12.32;3.40;;;14.10;71.50;;;;;;5070716;28;20348;-79
2020/12/20 10:32:32;;;;;;;9.30;2.88;;;14.10;71.50;;;;;;5058043;28;20033;-81
2020/12/20 10:34:58;;;;;;;10.73;3.78;;;14.10;71.70;;;;;;5059145;28;20028;-83
2020/12/20 10:37:23;;;;;;;9.30;3.60;;;14.10;71.80;;;;;;5071592;28;20445;-77
2020/12/20 10:39:49;;;;;;;13.02;3.80;;;14.10;71.70;;;;;;5051760;28;20364;-78
2020/12/20 10:42:15;;;;;;;7.00;2.60;;;14.20;71.70;;;;;;5070026;28;20086;-79
2020/12/20 10:44:41;;;;;;;15.70;5.03;;;14.20;71.50;;;;;;5051692;28;20166;-79
2020/12/20 10:47:08;;;;;;;20.17;6.47;;;14.20;71.30;;;;;;5070285;28;20078;-78
2020/12/20 10:49:34;;;;;;;11.30;3.83;;;14.20;71.30;;;;;;5070703;28;20398;-85
2020/12/20 10:52:00;;;;;;;11.85;4.90;;;14.20;71.40;;;;;;5035715;28;20029;-76
2020/12/20 10:54:29;;;;;;;13.23;3.75;;;14.20;71.30;;;;;;5052426;28;20035;-84
2020/12/20 10:56:58;;;;;;;14.32;4.22;;;14.30;71.20;;;;;;5070334;28;20108;-76
2020/12/20 10:59:26;;;;;;;12.93;3.83;;;14.20;70.90;;;;;;5071194;28;20064;-77
2020/12/20 11:01:53;;;;;;;10.68;3.75;;;14.20;70.90;;;;;;5066103;28;20043;-74
2020/12/20 11:04:19;;;;;;;13.45;4.10;;;14.20;70.90;;;;;;5070122;28;20028;-73
2020/12/20 11:06:44;;;;;;;14.70;3.05;;;14.30;71.20;;;;;;5064597;28;20111;-73
2020/12/20 11:09:10;;;;;;;11.13;3.90;;;14.40;70.80;;;;;;5070556;28;20113;-73
2020/12/20 11:11:36;;;;;;;12.32;3.83;;;14.40;70.30;;;;;;5072910;28;20037;-71
2020/12/20 11:14:02;;;;;;;10.80;3.42;;;14.40;70.60;;;;;;5070599;28;20036;-72
2020/12/20 11:16:27;;;;;;;14.40;4.22;;;14.40;70.40;;;;;;5069542;28;20041;-72
2020/12/20 11:18:53;;;;;;;15.25;3.50;;;14.50;70.30;;;;;;5068314;28;20037;-72
2020/12/20 11:21:20;;;;;;;12.13;4.65;;;14.60;69.80;;;;;;5070914;28;20107;-72
2020/12/20 11:23:47;;;;;;;13.05;3.47;;;14.60;69.80;;;;;;5062052;28;20060;-71
2020/12/20 11:26:14;;;;;;;13.10;3.92;;;14.60;69.40;;;;;;5059923;28;20071;-72
2020/12/20 11:28:41;;;;;;;12.65;4.50;;;14.60;69.50;;;;;;5066371;28;20028;-72
2020/12/20 11:31:09;;;;;;;9.48;3.63;;;14.70;69.20;;;;;;5066730;28;20021;-72
2020/12/20 11:33:35;;;;;;;11.05;3.53;;;14.70;69.30;;;;;;5051255;28;20358;-72
2020/12/20 11:36:00;;;;;;;14.98;4.97;;;14.80;68.90;;;;;;5066908;28;20047;-72
2020/12/20 11:38:26;;;;;;;12.38;3.80;;;14.70;69.10;;;;;;5049729;28;20386;-72
2020/12/20 11:40:52;;;;;;;16.35;3.90;;;14.80;69.30;;;;;;5069802;28;20102;-71
2020/12/20 11:43:17;;;;;;;17.83;6.32;;;14.70;68.80;;;;;;5070171;28;20447;-72
2020/12/20 11:45:45;;;;;;;14.80;4.03;;;14.70;69.00;;;;;;5062018;28;20041;-72
2020/12/20 11:48:12;;;;;;;13.52;3.60;;;14.60;69.60;;;;;;5045422;28;20029;-73
2020/12/20 11:50:38;;;;;;;10.60;4.00;;;14.50;69.40;;;;;;5049594;28;20035;-73
2020/12/20 11:53:04;;;;;;;21.10;4.75;;;14.50;69.50;;;;;;5056280;28;20036;-73
2020/12/20 11:55:30;;;;;;;13.65;4.60;;;14.60;69.20;;;;;;5050956;28;20064;-72
2020/12/20 11:57:55;;;;;;;14.93;4.25;;;14.70;69.30;;;;;;5073672;28;20228;-72
2020/12/20 12:00:21;;;;;;;13.48;4.45;;;14.80;69.00;;;;;;5067404;28;20428;-71
2020/12/20 12:02:46;;;;;;;12.15;5.15;;;14.90;68.90;;;;;;5065264;28;20029;-73
2020/12/20 12:05:12;;;;;;;16.08;5.30;;;14.90;68.50;;;;;;5061902;28;20339;-73
2020/12/20 12:07:38;;;;;;;14.88;5.22;;;14.80;68.40;;;;;;5068660;28;20078;-73
2020/12/20 12:10:03;;;;;;;11.88;4.78;;;14.80;68.40;;;;;;5068572;28;20493;-73
2020/12/20 12:12:29;;;;;;;16.98;6.68;;;14.90;68.40;;;;;;5033768;28;20162;-75
2020/12/20 12:14:54;;;;;;;11.48;4.60;;;14.90;68.10;;;;;;5065701;28;20091;-72
2020/12/20 12:17:20;;;;;;;16.17;5.47;;;15.00;68.00;;;;;;5064014;28;20191;-77
2020/12/20 12:19:46;;;;;;;10.40;4.30;;;15.10;68.00;;;;;;5071477;28;20032;-75
2020/12/20 12:22:11;;;;;;;12.93;4.63;;;15.10;67.60;;;;;;5070175;28;20107;-74
2020/12/20 12:24:37;;;;;;;12.45;4.30;;;15.10;67.80;;;;;;5071905;28;20029;-74
2020/12/20 12:27:03;;;;;;;12.75;4.32;;;15.20;67.80;;;;;;5071047;28;20098;-74
2020/12/20 12:29:29;;;;;;;12.90;4.95;;;15.20;67.60;;;;;;5067486;28;20079;-75
2020/12/20 12:31:54;;;;;;;15.05;5.22;;;15.10;67.70;;;;;;5071889;28;20100;-73
2020/12/20 12:34:20;;;;;;;16.05;4.60;;;15.10;67.50;;;;;;5074059;28;20423;-74
2020/12/20 12:36:45;;;;;;;13.80;4.55;;;15.10;67.70;;;;;;5057230;28;20123;-74
2020/12/20 12:39:11;;;;;;;14.73;5.10;;;15.10;67.50;;;;;;5074723;28;20106;-74
2020/12/20 12:41:37;;;;;;;13.70;5.35;;;15.00;67.20;;;;;;5065061;28;20415;-75
2020/12/20 12:44:02;;;;;;;12.05;5.72;;;14.80;67.40;;;;;;5063761;28;20139;-74